sensor_id;sensor_type;location;lat;lon;timestamp;P1;durP1;ratioP1;P2;durP2;ratioP2
92;SDS011;16232;48.800;9.002;2023-05-07T00:00:13;7.70;;;4.53;;
92;SDS011;16232;48.800;9.002;2023-05-07T00:02:43;5.33;;;3.90;;
92;SDS011;16232;48.800;9.002;2023-05-07T00:05:11;4.73;;;3.90;;
92;SDS011;16232;48.800;9.002;2023-05-07T00:07:38;5.63;;;4.27;;
92;SDS011;16232;48.800;9.002;2023-05-07T00:10:06;5.23;;;3.90;;
92;SDS011;16232;48.800;9.002;2023-05-07T00:12:34;6.73;;;4.43;;
92;SDS011;16232;48.800;9.002;2023-05-07T00:15:03;8.50;;;4.50;;
92;SDS011;16232;48.800;9.002;2023-05-07T00:17:30;5.23;;;4.40;;
92;SDS011;16232;48.800;9.002;2023-05-07T00:19:59;4.80;;;4.30;;
92;SDS011;16232;48.800;9.002;2023-05-07T00:22:26;4.83;;;4.43;;
92;SDS011;16232;48.800;9.002;2023-05-07T00:24:55;5.00;;;4.50;;
92;SDS011;16232;48.800;9.002;2023-05-07T00:27:23;6.60;;;4.73;;
92;SDS011;16232;48.800;9.002;2023-05-07T00:29:51;6.27;;;4.50;;
92;SDS011;16232;48.800;9.002;2023-05-07T00:32:19;6.13;;;4.80;;
92;SDS011;16232;48.800;9.002;2023-05-07T00:34:47;4.57;;;4.17;;
92;SDS011;16232;48.800;9.002;2023-05-07T00:37:16;4.17;;;3.77;;
92;SDS011;16232;48.800;9.002;2023-05-07T00:39:43;4.17;;;3.77;;
92;SDS011;16232;48.800;9.002;2023-05-07T00:42:10;5.10;;;4.47;;
92;SDS011;16232;48.800;9.002;2023-05-07T00:44:38;4.67;;;4.27;;
92;SDS011;16232;48.800;9.002;2023-05-07T00:47:05;5.80;;;4.37;;
92;SDS011;16232;48.800;9.002;2023-05-07T00:49:36;4.87;;;4.37;;
92;SDS011;16232;48.800;9.002;2023-05-07T00:52:05;7.03;;;4.10;;
92;SDS011;16232;48.800;9.002;2023-05-07T00:54:34;5.10;;;4.47;;
92;SDS011;16232;48.800;9.002;2023-05-07T00:57:01;4.30;;;3.80;;
92;SDS011;16232;48.800;9.002;2023-05-07T00:59:29;5.00;;;4.00;;
92;SDS011;16232;48.800;9.002;2023-05-07T01:01:57;4.97;;;4.57;;
92;SDS011;16232;48.800;9.002;2023-05-07T01:04:25;5.00;;;4.50;;
92;SDS011;16232;48.800;9.002;2023-05-07T01:06:54;4.87;;;4.37;;
92;SDS011;16232;48.800;9.002;2023-05-07T01:09:22;4.20;;;3.80;;
92;SDS011;16232;48.800;9.002;2023-05-07T01:11:50;3.90;;;3.47;;
92;SDS011;16232;48.800;9.002;2023-05-07T01:14:18;4.70;;;3.97;;
92;SDS011;16232;48.800;9.002;2023-05-07T01:16:45;4.67;;;4.17;;
92;SDS011;16232;48.800;9.002;2023-05-07T01:19:13;4.50;;;3.77;;
92;SDS011;16232;48.800;9.002;2023-05-07T01:21:42;5.37;;;4.00;;
92;SDS011;16232;48.800;9.002;2023-05-07T01:24:13;4.47;;;4.07;;
92;SDS011;16232;48.800;9.002;2023-05-07T01:26:41;5.30;;;4.77;;
92;SDS011;16232;48.800;9.002;2023-05-07T01:29:09;4.43;;;4.03;;
92;SDS011;16232;48.800;9.002;2023-05-07T01:31:36;4.30;;;3.97;;
92;SDS011;16232;48.800;9.002;2023-05-07T01:34:04;5.50;;;5.00;;
92;SDS011;16232;48.800;9.002;2023-05-07T01:36:33;5.00;;;4.47;;
92;SDS011;16232;48.800;9.002;2023-05-07T01:39:01;4.53;;;4.13;;
92;SDS011;16232;48.800;9.002;2023-05-07T01:41:30;4.77;;;4.13;;
92;SDS011;16232;48.800;9.002;2023-05-07T01:43:58;4.20;;;3.80;;
92;SDS011;16232;48.800;9.002;2023-05-07T01:46:26;4.57;;;4.17;;
92;SDS011;16232;48.800;9.002;2023-05-07T01:48:54;4.87;;;4.47;;
92;SDS011;16232;48.800;9.002;2023-05-07T01:51:21;5.03;;;4.53;;
92;SDS011;16232;48.800;9.002;2023-05-07T01:53:49;4.77;;;3.90;;
92;SDS011;16232;48.800;9.002;2023-05-07T01:56:16;5.13;;;3.60;;
92;SDS011;16232;48.800;9.002;2023-05-07T01:58:45;4.50;;;4.07;;
92;SDS011;16232;48.800;9.002;2023-05-07T02:01:13;3.83;;;3.53;;
92;SDS011;16232;48.800;9.002;2023-05-07T02:03:40;4.53;;;3.90;;
92;SDS011;16232;48.800;9.002;2023-05-07T02:06:08;5.97;;;4.47;;
92;SDS011;16232;48.800;9.002;2023-05-07T02:08:35;4.07;;;3.73;;
92;SDS011;16232;48.800;9.002;2023-05-07T02:11:03;4.70;;;3.70;;
92;SDS011;16232;48.800;9.002;2023-05-07T02:13:31;3.40;;;2.90;;
92;SDS011;16232;48.800;9.002;2023-05-07T02:16:00;4.30;;;3.90;;
92;SDS011;16232;48.800;9.002;2023-05-07T02:18:28;5.17;;;3.37;;
92;SDS011;16232;48.800;9.002;2023-05-07T02:20:56;4.70;;;3.43;;
92;SDS011;16232;48.800;9.002;2023-05-07T02:23:24;4.50;;;4.10;;
92;SDS011;16232;48.800;9.002;2023-05-07T02:25:51;4.20;;;3.80;;
92;SDS011;16232;48.800;9.002;2023-05-07T02:28:18;4.20;;;3.70;;
92;SDS011;16232;48.800;9.002;2023-05-07T02:30:46;5.13;;;3.90;;
92;SDS011;16232;48.800;9.002;2023-05-07T02:33:15;4.67;;;3.63;;
92;SDS011;16232;48.800;9.002;2023-05-07T02:35:42;4.47;;;3.70;;
92;SDS011;16232;48.800;9.002;2023-05-07T02:38:09;5.07;;;4.07;;
92;SDS011;16232;48.800;9.002;2023-05-07T02:40:37;5.30;;;4.00;;
92;SDS011;16232;48.800;9.002;2023-05-07T02:43:05;6.57;;;5.93;;
92;SDS011;16232;48.800;9.002;2023-05-07T02:45:32;4.93;;;4.43;;
92;SDS011;16232;48.800;9.002;2023-05-07T02:48:00;5.90;;;4.00;;
92;SDS011;16232;48.800;9.002;2023-05-07T02:50:28;4.30;;;3.70;;
92;SDS011;16232;48.800;9.002;2023-05-07T02:52:57;4.63;;;4.23;;
92;SDS011;16232;48.800;9.002;2023-05-07T02:55:25;4.40;;;4.00;;
92;SDS011;16232;48.800;9.002;2023-05-07T02:57:52;4.50;;;3.97;;
92;SDS011;16232;48.800;9.002;2023-05-07T03:00:20;4.37;;;3.97;;
92;SDS011;16232;48.800;9.002;2023-05-07T03:02:47;4.97;;;4.43;;
92;SDS011;16232;48.800;9.002;2023-05-07T03:05:15;5.07;;;4.40;;
92;SDS011;16232;48.800;9.002;2023-05-07T03:07:43;5.13;;;4.63;;
92;SDS011;16232;48.800;9.002;2023-05-07T03:10:12;7.10;;;5.17;;
92;SDS011;16232;48.800;9.002;2023-05-07T03:12:41;5.60;;;4.47;;
92;SDS011;16232;48.800;9.002;2023-05-07T03:15:09;5.47;;;4.23;;
92;SDS011;16232;48.800;9.002;2023-05-07T03:17:37;6.63;;;4.90;;
92;SDS011;16232;48.800;9.002;2023-05-07T03:20:05;5.23;;;4.67;;
92;SDS011;16232;48.800;9.002;2023-05-07T03:22:34;4.80;;;4.40;;
92;SDS011;16232;48.800;9.002;2023-05-07T03:25:03;5.70;;;5.20;;
92;SDS011;16232;48.800;9.002;2023-05-07T03:27:31;5.07;;;4.57;;
92;SDS011;16232;48.800;9.002;2023-05-07T03:29:58;6.67;;;5.33;;
92;SDS011;16232;48.800;9.002;2023-05-07T03:32:25;6.20;;;5.60;;
92;SDS011;16232;48.800;9.002;2023-05-07T03:34:53;5.10;;;4.50;;
92;SDS011;16232;48.800;9.002;2023-05-07T03:37:21;6.07;;;5.57;;
92;SDS011;16232;48.800;9.002;2023-05-07T03:39:48;5.97;;;4.77;;
92;SDS011;16232;48.800;9.002;2023-05-07T03:42:17;4.90;;;4.50;;
92;SDS011;16232;48.800;9.002;2023-05-07T03:44:44;5.30;;;4.80;;
92;SDS011;16232;48.800;9.002;2023-05-07T03:47:12;5.17;;;4.70;;
92;SDS011;16232;48.800;9.002;2023-05-07T03:49:39;4.90;;;4.50;;
92;SDS011;16232;48.800;9.002;2023-05-07T03:52:06;4.73;;;4.33;;
92;SDS011;16232;48.800;9.002;2023-05-07T03:54:34;6.87;;;5.73;;
92;SDS011;16232;48.800;9.002;2023-05-07T03:57:01;4.93;;;4.43;;
92;SDS011;16232;48.800;9.002;2023-05-07T03:59:30;5.50;;;5.00;;
92;SDS011;16232;48.800;9.002;2023-05-07T04:01:58;4.50;;;3.70;;
92;SDS011;16232;48.800;9.002;2023-05-07T04:04:25;5.17;;;4.27;;
92;SDS011;16232;48.800;9.002;2023-05-07T04:06:52;5.40;;;4.40;;
92;SDS011;16232;48.800;9.002;2023-05-07T04:09:20;6.53;;;5.77;;
92;SDS011;16232;48.800;9.002;2023-05-07T04:11:47;4.53;;;4.07;;
92;SDS011;16232;48.800;9.002;2023-05-07T04:14:15;4.80;;;3.97;;
92;SDS011;16232;48.800;9.002;2023-05-07T04:16:43;5.70;;;5.20;;
92;SDS011;16232;48.800;9.002;2023-05-07T04:19:11;5.80;;;5.30;;
92;SDS011;16232;48.800;9.002;2023-05-07T04:21:38;5.80;;;5.20;;
92;SDS011;16232;48.800;9.002;2023-05-07T04:24:06;5.63;;;5.13;;
92;SDS011;16232;48.800;9.002;2023-05-07T04:26:33;5.83;;;5.23;;
92;SDS011;16232;48.800;9.002;2023-05-07T04:29:01;6.80;;;4.43;;
92;SDS011;16232;48.800;9.002;2023-05-07T04:31:28;4.90;;;4.40;;
92;SDS011;16232;48.800;9.002;2023-05-07T04:33:58;7.50;;;5.80;;
92;SDS011;16232;48.800;9.002;2023-05-07T04:36:26;5.70;;;4.97;;
92;SDS011;16232;48.800;9.002;2023-05-07T04:38:54;5.93;;;4.60;;
92;SDS011;16232;48.800;9.002;2023-05-07T04:41:21;6.37;;;4.60;;
92;SDS011;16232;48.800;9.002;2023-05-07T04:43:49;5.30;;;4.77;;
92;SDS011;16232;48.800;9.002;2023-05-07T04:46:16;5.93;;;4.73;;
92;SDS011;16232;48.800;9.002;2023-05-07T04:48:44;6.93;;;5.33;;
92;SDS011;16232;48.800;9.002;2023-05-07T04:51:12;7.77;;;5.00;;
92;SDS011;16232;48.800;9.002;2023-05-07T04:53:40;5.87;;;5.17;;
92;SDS011;16232;48.800;9.002;2023-05-07T04:56:08;6.67;;;5.97;;
92;SDS011;16232;48.800;9.002;2023-05-07T04:58:36;7.53;;;5.37;;
92;SDS011;16232;48.800;9.002;2023-05-07T05:01:03;5.47;;;4.97;;
92;SDS011;16232;48.800;9.002;2023-05-07T05:03:31;5.30;;;4.73;;
92;SDS011;16232;48.800;9.002;2023-05-07T05:05:58;6.30;;;4.67;;
92;SDS011;16232;48.800;9.002;2023-05-07T05:08:27;5.33;;;4.80;;
92;SDS011;16232;48.800;9.002;2023-05-07T05:10:54;4.90;;;4.40;;
92;SDS011;16232;48.800;9.002;2023-05-07T05:13:22;5.30;;;4.90;;
92;SDS011;16232;48.800;9.002;2023-05-07T05:15:49;5.67;;;5.13;;
92;SDS011;16232;48.800;9.002;2023-05-07T05:18:17;4.73;;;4.33;;
92;SDS011;16232;48.800;9.002;2023-05-07T05:20:45;6.20;;;4.83;;
92;SDS011;16232;48.800;9.002;2023-05-07T05:23:13;5.53;;;4.73;;
92;SDS011;16232;48.800;9.002;2023-05-07T05:25:41;5.07;;;4.57;;
92;SDS011;16232;48.800;9.002;2023-05-07T05:28:09;5.47;;;4.03;;
92;SDS011;16232;48.800;9.002;2023-05-07T05:30:36;4.30;;;3.93;;
92;SDS011;16232;48.800;9.002;2023-05-07T05:33:04;4.53;;;4.13;;
92;SDS011;16232;48.800;9.002;2023-05-07T05:35:31;5.63;;;3.93;;
92;SDS011;16232;48.800;9.002;2023-05-07T05:38:00;4.00;;;3.70;;
92;SDS011;16232;48.800;9.002;2023-05-07T05:40:27;4.10;;;3.80;;
92;SDS011;16232;48.800;9.002;2023-05-07T05:42:56;4.07;;;3.67;;
92;SDS011;16232;48.800;9.002;2023-05-07T05:45:24;4.00;;;3.50;;
92;SDS011;16232;48.800;9.002;2023-05-07T05:47:51;4.57;;;3.50;;
92;SDS011;16232;48.800;9.002;2023-05-07T05:50:19;5.03;;;4.03;;
92;SDS011;16232;48.800;9.002;2023-05-07T05:52:46;3.83;;;3.50;;
92;SDS011;16232;48.800;9.002;2023-05-07T05:55:14;4.97;;;3.60;;
92;SDS011;16232;48.800;9.002;2023-05-07T05:57:41;4.63;;;3.90;;
92;SDS011;16232;48.800;9.002;2023-05-07T06:00:10;3.10;;;2.80;;
92;SDS011;16232;48.800;9.002;2023-05-07T06:02:38;3.90;;;3.30;;
92;SDS011;16232;48.800;9.002;2023-05-07T06:05:06;3.77;;;3.47;;
92;SDS011;16232;48.800;9.002;2023-05-07T06:07:33;3.77;;;3.00;;
92;SDS011;16232;48.800;9.002;2023-05-07T06:10:01;4.27;;;3.40;;
92;SDS011;16232;48.800;9.002;2023-05-07T06:12:28;4.23;;;3.73;;
92;SDS011;16232;48.800;9.002;2023-05-07T06:14:56;3.53;;;3.20;;
92;SDS011;16232;48.800;9.002;2023-05-07T06:17:24;4.27;;;3.87;;
92;SDS011;16232;48.800;9.002;2023-05-07T06:19:52;4.60;;;4.13;;
92;SDS011;16232;48.800;9.002;2023-05-07T06:22:19;4.50;;;4.10;;
92;SDS011;16232;48.800;9.002;2023-05-07T06:24:47;5.73;;;3.77;;
92;SDS011;16232;48.800;9.002;2023-05-07T06:27:14;4.90;;;3.87;;
92;SDS011;16232;48.800;9.002;2023-05-07T06:29:42;4.40;;;4.00;;
92;SDS011;16232;48.800;9.002;2023-05-07T06:32:09;5.00;;;3.73;;
92;SDS011;16232;48.800;9.002;2023-05-07T06:34:39;4.90;;;3.70;;
92;SDS011;16232;48.800;9.002;2023-05-07T06:37:06;5.50;;;3.70;;
92;SDS011;16232;48.800;9.002;2023-05-07T06:39:34;4.47;;;3.40;;
92;SDS011;16232;48.800;9.002;2023-05-07T06:42:01;3.70;;;3.40;;
92;SDS011;16232;48.800;9.002;2023-05-07T06:44:29;3.50;;;3.00;;
92;SDS011;16232;48.800;9.002;2023-05-07T06:46:57;4.10;;;2.97;;
92;SDS011;16232;48.800;9.002;2023-05-07T06:49:24;3.87;;;2.93;;
92;SDS011;16232;48.800;9.002;2023-05-07T06:51:53;4.40;;;2.83;;
92;SDS011;16232;48.800;9.002;2023-05-07T06:54:20;2.73;;;2.53;;
92;SDS011;16232;48.800;9.002;2023-05-07T06:56:48;4.50;;;2.77;;
92;SDS011;16232;48.800;9.002;2023-05-07T06:59:15;3.27;;;2.90;;
92;SDS011;16232;48.800;9.002;2023-05-07T07:01:43;2.97;;;2.67;;
92;SDS011;16232;48.800;9.002;2023-05-07T07:04:10;3.70;;;2.60;;
92;SDS011;16232;48.800;9.002;2023-05-07T07:06:37;2.83;;;2.27;;
92;SDS011;16232;48.800;9.002;2023-05-07T07:09:06;2.87;;;2.47;;
92;SDS011;16232;48.800;9.002;2023-05-07T07:11:34;5.17;;;2.63;;
92;SDS011;16232;48.800;9.002;2023-05-07T07:14:01;2.63;;;2.43;;
92;SDS011;16232;48.800;9.002;2023-05-07T07:16:30;2.17;;;1.97;;
92;SDS011;16232;48.800;9.002;2023-05-07T07:18:57;3.20;;;2.10;;
92;SDS011;16232;48.800;9.002;2023-05-07T07:21:25;2.57;;;1.97;;
92;SDS011;16232;48.800;9.002;2023-05-07T07:23:52;2.10;;;1.93;;
92;SDS011;16232;48.800;9.002;2023-05-07T07:26:21;2.23;;;2.13;;
92;SDS011;16232;48.800;9.002;2023-05-07T07:28:48;2.33;;;2.10;;
92;SDS011;16232;48.800;9.002;2023-05-07T07:31:16;2.17;;;1.97;;
92;SDS011;16232;48.800;9.002;2023-05-07T07:33:43;1.97;;;1.73;;
92;SDS011;16232;48.800;9.002;2023-05-07T07:36:11;2.73;;;1.90;;
92;SDS011;16232;48.800;9.002;2023-05-07T07:38:38;2.57;;;1.97;;
92;SDS011;16232;48.800;9.002;2023-05-07T07:41:07;2.33;;;2.03;;
92;SDS011;16232;48.800;9.002;2023-05-07T07:43:36;2.50;;;2.30;;
92;SDS011;16232;48.800;9.002;2023-05-07T07:46:04;2.40;;;2.20;;
92;SDS011;16232;48.800;9.002;2023-05-07T07:48:31;4.03;;;2.40;;
92;SDS011;16232;48.800;9.002;2023-05-07T07:50:59;5.10;;;2.37;;
92;SDS011;16232;48.800;9.002;2023-05-07T07:53:26;2.37;;;1.87;;
92;SDS011;16232;48.800;9.002;2023-05-07T07:55:54;2.23;;;2.03;;
92;SDS011;16232;48.800;9.002;2023-05-07T07:58:21;4.07;;;3.07;;
92;SDS011;16232;48.800;9.002;2023-05-07T08:00:51;3.87;;;2.97;;
92;SDS011;16232;48.800;9.002;2023-05-07T08:03:21;2.77;;;2.57;;
92;SDS011;16232;48.800;9.002;2023-05-07T08:05:49;3.70;;;2.83;;
92;SDS011;16232;48.800;9.002;2023-05-07T08:08:16;3.20;;;2.90;;
92;SDS011;16232;48.800;9.002;2023-05-07T08:10:43;3.50;;;2.80;;
92;SDS011;16232;48.800;9.002;2023-05-07T08:13:11;2.90;;;2.27;;
92;SDS011;16232;48.800;9.002;2023-05-07T08:15:38;3.87;;;3.13;;
92;SDS011;16232;48.800;9.002;2023-05-07T08:18:07;2.43;;;2.17;;
92;SDS011;16232;48.800;9.002;2023-05-07T08:20:34;4.23;;;2.90;;
92;SDS011;16232;48.800;9.002;2023-05-07T08:23:04;2.33;;;1.90;;
92;SDS011;16232;48.800;9.002;2023-05-07T08:25:32;3.70;;;2.70;;
92;SDS011;16232;48.800;9.002;2023-05-07T08:28:00;2.93;;;2.63;;
92;SDS011;16232;48.800;9.002;2023-05-07T08:30:28;3.27;;;2.97;;
92;SDS011;16232;48.800;9.002;2023-05-07T08:32:55;3.93;;;3.00;;
92;SDS011;16232;48.800;9.002;2023-05-07T08:35:24;2.53;;;2.17;;
92;SDS011;16232;48.800;9.002;2023-05-07T08:37:53;3.53;;;2.67;;
92;SDS011;16232;48.800;9.002;2023-05-07T08:40:20;3.03;;;2.70;;
92;SDS011;16232;48.800;9.002;2023-05-07T08:42:49;2.53;;;2.33;;
92;SDS011;16232;48.800;9.002;2023-05-07T08:45:19;4.63;;;2.47;;
92;SDS011;16232;48.800;9.002;2023-05-07T08:47:47;3.63;;;2.10;;
92;SDS011;16232;48.800;9.002;2023-05-07T08:50:18;1.70;;;1.60;;
92;SDS011;16232;48.800;9.002;2023-05-07T08:52:47;1.63;;;1.53;;
92;SDS011;16232;48.800;9.002;2023-05-07T08:55:14;1.77;;;1.67;;
92;SDS011;16232;48.800;9.002;2023-05-07T08:57:42;1.83;;;1.40;;
92;SDS011;16232;48.800;9.002;2023-05-07T09:00:10;1.50;;;1.40;;
92;SDS011;16232;48.800;9.002;2023-05-07T09:02:37;2.23;;;1.90;;
92;SDS011;16232;48.800;9.002;2023-05-07T09:05:05;2.60;;;1.53;;
92;SDS011;16232;48.800;9.002;2023-05-07T09:07:33;2.22;;;1.52;;
92;SDS011;16232;48.800;9.002;2023-05-07T09:10:03;1.92;;;1.60;;
92;SDS011;16232;48.800;9.002;2023-05-07T09:12:30;2.05;;;1.67;;
92;SDS011;16232;48.800;9.002;2023-05-07T09:15:00;2.28;;;1.58;;
92;SDS011;16232;48.800;9.002;2023-05-07T09:17:28;1.98;;;1.38;;
92;SDS011;16232;48.800;9.002;2023-05-07T09:19:55;1.90;;;1.08;;
92;SDS011;16232;48.800;9.002;2023-05-07T09:22:22;2.05;;;1.30;;
92;SDS011;16232;48.800;9.002;2023-05-07T09:24:51;1.63;;;1.35;;
92;SDS011;16232;48.800;9.002;2023-05-07T09:27:20;1.95;;;1.75;;
92;SDS011;16232;48.800;9.002;2023-05-07T09:29:48;1.67;;;1.58;;
92;SDS011;16232;48.800;9.002;2023-05-07T09:32:15;2.10;;;1.20;;
92;SDS011;16232;48.800;9.002;2023-05-07T09:34:42;2.20;;;1.58;;
92;SDS011;16232;48.800;9.002;2023-05-07T09:37:10;2.30;;;1.25;;
92;SDS011;16232;48.800;9.002;2023-05-07T09:39:39;2.60;;;1.40;;
92;SDS011;16232;48.800;9.002;2023-05-07T09:42:07;1.35;;;1.20;;
92;SDS011;16232;48.800;9.002;2023-05-07T09:44:36;1.27;;;1.17;;
92;SDS011;16232;48.800;9.002;2023-05-07T09:47:04;3.05;;;1.33;;
92;SDS011;16232;48.800;9.002;2023-05-07T09:49:33;3.17;;;1.45;;
92;SDS011;16232;48.800;9.002;2023-05-07T09:52:01;1.67;;;1.15;;
92;SDS011;16232;48.800;9.002;2023-05-07T09:54:29;1.90;;;1.27;;
92;SDS011;16232;48.800;9.002;2023-05-07T09:56:58;2.28;;;1.30;;
92;SDS011;16232;48.800;9.002;2023-05-07T09:59:27;1.65;;;1.55;;
92;SDS011;16232;48.800;9.002;2023-05-07T10:01:57;1.70;;;1.30;;
92;SDS011;16232;48.800;9.002;2023-05-07T10:04:25;3.87;;;1.40;;
92;SDS011;16232;48.800;9.002;2023-05-07T10:06:53;1.60;;;1.10;;
92;SDS011;16232;48.800;9.002;2023-05-07T10:09:20;2.43;;;1.43;;
92;SDS011;16232;48.800;9.002;2023-05-07T10:11:51;2.63;;;1.40;;
92;SDS011;16232;48.800;9.002;2023-05-07T10:14:19;1.40;;;1.30;;
92;SDS011;16232;48.800;9.002;2023-05-07T10:16:47;2.17;;;1.60;;
92;SDS011;16232;48.800;9.002;2023-05-07T10:19:16;1.97;;;1.77;;
92;SDS011;16232;48.800;9.002;2023-05-07T10:21:44;1.70;;;1.60;;
92;SDS011;16232;48.800;9.002;2023-05-07T10:24:13;3.03;;;1.83;;
92;SDS011;16232;48.800;9.002;2023-05-07T10:26:44;4.37;;;2.50;;
92;SDS011;16232;48.800;9.002;2023-05-07T10:29:14;2.40;;;2.20;;
92;SDS011;16232;48.800;9.002;2023-05-07T10:34:28;2.27;;;1.97;;
92;SDS011;16232;48.800;9.002;2023-05-07T10:36:56;3.70;;;1.80;;
92;SDS011;16232;48.800;9.002;2023-05-07T10:39:24;2.67;;;1.70;;
92;SDS011;16232;48.800;9.002;2023-05-07T10:41:51;2.27;;;1.70;;
92;SDS011;16232;48.800;9.002;2023-05-07T10:44:25;3.30;;;1.73;;
92;SDS011;16232;48.800;9.002;2023-05-07T10:52:23;1.97;;;1.77;;
92;SDS011;16232;48.800;9.002;2023-05-07T10:57:46;2.97;;;1.80;;
92;SDS011;16232;48.800;9.002;2023-05-07T11:03:06;2.47;;;1.80;;
92;SDS011;16232;48.800;9.002;2023-05-07T11:05:34;2.23;;;1.67;;
92;SDS011;16232;48.800;9.002;2023-05-07T11:08:03;2.57;;;1.80;;
92;SDS011;16232;48.800;9.002;2023-05-07T11:10:50;3.70;;;2.10;;
92;SDS011;16232;48.800;9.002;2023-05-07T11:13:18;1.67;;;1.57;;
92;SDS011;16232;48.800;9.002;2023-05-07T11:15:46;2.50;;;2.17;;
92;SDS011;16232;48.800;9.002;2023-05-07T11:18:14;2.03;;;1.83;;
92;SDS011;16232;48.800;9.002;2023-05-07T11:20:49;2.93;;;1.70;;
92;SDS011;16232;48.800;9.002;2023-05-07T11:26:05;4.37;;;2.40;;
92;SDS011;16232;48.800;9.002;2023-05-07T11:28:36;2.73;;;2.23;;
92;SDS011;16232;48.800;9.002;2023-05-07T11:31:04;2.87;;;2.43;;
92;SDS011;16232;48.800;9.002;2023-05-07T11:33:31;2.50;;;2.30;;
92;SDS011;16232;48.800;9.002;2023-05-07T11:35:59;3.23;;;1.90;;
92;SDS011;16232;48.800;9.002;2023-05-07T11:38:28;1.80;;;1.70;;
92;SDS011;16232;48.800;9.002;2023-05-07T11:40:56;2.30;;;2.10;;
92;SDS011;16232;48.800;9.002;2023-05-07T11:43:25;3.10;;;2.00;;
92;SDS011;16232;48.800;9.002;2023-05-07T11:45:53;2.70;;;2.13;;
92;SDS011;16232;48.800;9.002;2023-05-07T11:48:21;2.50;;;2.30;;
92;SDS011;16232;48.800;9.002;2023-05-07T11:50:49;3.27;;;2.37;;
92;SDS011;16232;48.800;9.002;2023-05-07T11:53:18;3.10;;;2.27;;
92;SDS011;16232;48.800;9.002;2023-05-07T11:55:46;2.77;;;1.83;;
92;SDS011;16232;48.800;9.002;2023-05-07T11:58:18;2.70;;;2.30;;
92;SDS011;16232;48.800;9.002;2023-05-07T12:00:52;2.10;;;1.90;;
92;SDS011;16232;48.800;9.002;2023-05-07T12:03:19;3.57;;;2.87;;
92;SDS011;16232;48.800;9.002;2023-05-07T12:05:47;3.97;;;2.80;;
92;SDS011;16232;48.800;9.002;2023-05-07T12:08:15;3.57;;;2.60;;
92;SDS011;16232;48.800;9.002;2023-05-07T12:10:43;5.90;;;3.10;;
92;SDS011;16232;48.800;9.002;2023-05-07T12:13:14;4.47;;;3.03;;
92;SDS011;16232;48.800;9.002;2023-05-07T12:15:43;7.67;;;3.50;;
92;SDS011;16232;48.800;9.002;2023-05-07T12:18:12;6.17;;;3.93;;
92;SDS011;16232;48.800;9.002;2023-05-07T12:20:40;7.53;;;4.37;;
92;SDS011;16232;48.800;9.002;2023-05-07T12:23:07;6.00;;;3.70;;
92;SDS011;16232;48.800;9.002;2023-05-07T12:25:35;5.63;;;3.80;;
92;SDS011;16232;48.800;9.002;2023-05-07T12:28:03;8.50;;;4.00;;
92;SDS011;16232;48.800;9.002;2023-05-07T12:30:31;5.50;;;2.90;;
92;SDS011;16232;48.800;9.002;2023-05-07T12:32:59;7.80;;;2.83;;
92;SDS011;16232;48.800;9.002;2023-05-07T12:35:28;13.07;;;4.57;;
92;SDS011;16232;48.800;9.002;2023-05-07T12:37:55;6.77;;;3.03;;
92;SDS011;16232;48.800;9.002;2023-05-07T12:40:25;5.47;;;3.30;;
92;SDS011;16232;48.800;9.002;2023-05-07T12:43:02;6.63;;;3.97;;
92;SDS011;16232;48.800;9.002;2023-05-07T12:45:29;8.00;;;3.97;;
92;SDS011;16232;48.800;9.002;2023-05-07T12:48:00;7.47;;;4.53;;
92;SDS011;16232;48.800;9.002;2023-05-07T12:50:32;10.10;;;4.90;;
92;SDS011;16232;48.800;9.002;2023-05-07T12:52:59;7.57;;;4.90;;
92;SDS011;16232;48.800;9.002;2023-05-07T12:55:28;9.93;;;5.03;;
92;SDS011;16232;48.800;9.002;2023-05-07T12:57:56;6.87;;;4.23;;
92;SDS011;16232;48.800;9.002;2023-05-07T13:00:33;5.03;;;3.30;;
92;SDS011;16232;48.800;9.002;2023-05-07T13:03:01;7.67;;;3.67;;
92;SDS011;16232;48.800;9.002;2023-05-07T13:05:28;8.23;;;5.07;;
92;SDS011;16232;48.800;9.002;2023-05-07T13:07:57;6.73;;;4.83;;
92;SDS011;16232;48.800;9.002;2023-05-07T13:10:24;9.40;;;4.20;;
92;SDS011;16232;48.800;9.002;2023-05-07T13:12:52;7.70;;;3.80;;
92;SDS011;16232;48.800;9.002;2023-05-07T13:15:19;5.47;;;4.03;;
92;SDS011;16232;48.800;9.002;2023-05-07T13:17:47;5.00;;;4.13;;
92;SDS011;16232;48.800;9.002;2023-05-07T13:20:14;9.00;;;4.13;;
92;SDS011;16232;48.800;9.002;2023-05-07T13:22:42;5.80;;;3.47;;
92;SDS011;16232;48.800;9.002;2023-05-07T13:25:11;4.87;;;3.20;;
92;SDS011;16232;48.800;9.002;2023-05-07T13:27:38;5.97;;;2.80;;
92;SDS011;16232;48.800;9.002;2023-05-07T13:30:06;3.10;;;2.40;;
92;SDS011;16232;48.800;9.002;2023-05-07T13:32:34;5.37;;;3.20;;
92;SDS011;16232;48.800;9.002;2023-05-07T13:35:01;3.17;;;2.47;;
92;SDS011;16232;48.800;9.002;2023-05-07T13:37:28;4.03;;;3.10;;
92;SDS011;16232;48.800;9.002;2023-05-07T13:39:56;6.93;;;3.20;;
92;SDS011;16232;48.800;9.002;2023-05-07T13:42:25;5.10;;;3.37;;
92;SDS011;16232;48.800;9.002;2023-05-07T13:44:52;3.83;;;2.80;;
92;SDS011;16232;48.800;9.002;2023-05-07T13:47:19;3.43;;;3.10;;
92;SDS011;16232;48.800;9.002;2023-05-07T13:49:47;3.07;;;2.43;;
92;SDS011;16232;48.800;9.002;2023-05-07T13:52:15;3.20;;;2.17;;
92;SDS011;16232;48.800;9.002;2023-05-07T13:54:43;3.33;;;2.33;;
92;SDS011;16232;48.800;9.002;2023-05-07T13:57:11;3.83;;;3.03;;
92;SDS011;16232;48.800;9.002;2023-05-07T13:59:40;3.13;;;2.83;;
92;SDS011;16232;48.800;9.002;2023-05-07T14:02:08;3.33;;;3.03;;
92;SDS011;16232;48.800;9.002;2023-05-07T14:04:35;3.50;;;3.20;;
92;SDS011;16232;48.800;9.002;2023-05-07T14:07:02;4.70;;;3.60;;
92;SDS011;16232;48.800;9.002;2023-05-07T14:09:30;4.80;;;3.80;;
92;SDS011;16232;48.800;9.002;2023-05-07T14:11:58;4.30;;;3.60;;
92;SDS011;16232;48.800;9.002;2023-05-07T14:14:26;4.43;;;3.60;;
92;SDS011;16232;48.800;9.002;2023-05-07T14:16:55;3.93;;;3.57;;
92;SDS011;16232;48.800;9.002;2023-05-07T14:19:23;3.80;;;3.40;;
92;SDS011;16232;48.800;9.002;2023-05-07T14:21:50;5.13;;;3.63;;
92;SDS011;16232;48.800;9.002;2023-05-07T14:24:17;4.37;;;3.53;;
92;SDS011;16232;48.800;9.002;2023-05-07T14:26:45;3.63;;;3.33;;
92;SDS011;16232;48.800;9.002;2023-05-07T14:29:12;4.63;;;3.97;;
92;SDS011;16232;48.800;9.002;2023-05-07T14:31:43;7.83;;;4.33;;
92;SDS011;16232;48.800;9.002;2023-05-07T14:34:12;4.90;;;3.90;;
92;SDS011;16232;48.800;9.002;2023-05-07T14:36:43;4.17;;;3.77;;
92;SDS011;16232;48.800;9.002;2023-05-07T14:39:10;4.80;;;4.13;;
92;SDS011;16232;48.800;9.002;2023-05-07T14:41:38;2.90;;;2.60;;
92;SDS011;16232;48.800;9.002;2023-05-07T14:44:05;5.47;;;2.73;;
92;SDS011;16232;48.800;9.002;2023-05-07T14:46:33;3.57;;;2.40;;
92;SDS011;16232;48.800;9.002;2023-05-07T14:49:01;3.17;;;2.87;;
92;SDS011;16232;48.800;9.002;2023-05-07T14:51:32;3.43;;;3.13;;
92;SDS011;16232;48.800;9.002;2023-05-07T14:53:59;3.80;;;2.93;;
92;SDS011;16232;48.800;9.002;2023-05-07T14:56:28;3.70;;;3.30;;
92;SDS011;16232;48.800;9.002;2023-05-07T14:58:55;5.30;;;3.20;;
92;SDS011;16232;48.800;9.002;2023-05-07T15:01:25;3.50;;;3.17;;
92;SDS011;16232;48.800;9.002;2023-05-07T15:03:52;3.50;;;3.00;;
92;SDS011;16232;48.800;9.002;2023-05-07T15:06:20;4.20;;;3.80;;
92;SDS011;16232;48.800;9.002;2023-05-07T15:08:49;10.47;;;6.47;;
92;SDS011;16232;48.800;9.002;2023-05-07T15:11:17;7.63;;;5.73;;
92;SDS011;16232;48.800;9.002;2023-05-07T15:13:44;4.80;;;4.40;;
92;SDS011;16232;48.800;9.002;2023-05-07T15:16:11;4.60;;;4.20;;
92;SDS011;16232;48.800;9.002;2023-05-07T15:18:39;3.13;;;2.83;;
92;SDS011;16232;48.800;9.002;2023-05-07T15:21:06;4.70;;;3.60;;
92;SDS011;16232;48.800;9.002;2023-05-07T15:23:34;5.70;;;4.87;;
92;SDS011;16232;48.800;9.002;2023-05-07T15:26:03;4.40;;;3.53;;
92;SDS011;16232;48.800;9.002;2023-05-07T15:28:32;5.63;;;3.20;;
92;SDS011;16232;48.800;9.002;2023-05-07T15:31:00;4.53;;;3.90;;
92;SDS011;16232;48.800;9.002;2023-05-07T15:33:27;2.90;;;2.70;;
92;SDS011;16232;48.800;9.002;2023-05-07T15:35:55;5.17;;;3.63;;
92;SDS011;16232;48.800;9.002;2023-05-07T15:38:24;3.53;;;3.23;;
92;SDS011;16232;48.800;9.002;2023-05-07T15:40:52;5.30;;;3.30;;
92;SDS011;16232;48.800;9.002;2023-05-07T15:43:21;4.63;;;3.43;;
92;SDS011;16232;48.800;9.002;2023-05-07T15:45:48;3.83;;;3.43;;
92;SDS011;16232;48.800;9.002;2023-05-07T15:48:16;3.93;;;2.70;;
92;SDS011;16232;48.800;9.002;2023-05-07T15:50:43;4.17;;;3.77;;